createdAt,value
2022-10-12T00:01:15.840Z,17.10
2022-10-12T00:03:44.445Z,17.15
2022-10-12T00:06:16.066Z,17.12
2022-10-12T00:08:45.698Z,17.15
2022-10-12T00:11:19.631Z,17.21
2022-10-12T00:13:49.414Z,17.25
2022-10-12T00:16:20.640Z,17.22
2022-10-12T00:18:51.971Z,17.22
2022-10-12T00:21:22.341Z,16.89
2022-10-12T00:23:51.352Z,16.65
2022-10-12T00:26:21.752Z,16.59
2022-10-12T00:28:50.869Z,16.48
2022-10-12T00:31:21.045Z,16.46
2022-10-12T00:33:49.996Z,16.50
2022-10-12T00:36:21.214Z,16.44
2022-10-12T00:38:59.654Z,16.39
2022-10-12T00:41:33.331Z,16.31
2022-10-12T00:44:02.222Z,16.43
2022-10-12T00:46:34.377Z,16.41
2022-10-12T00:49:10.286Z,16.42
2022-10-12T00:51:40.698Z,16.36
2022-10-12T00:54:13.628Z,16.38
2022-10-12T00:56:45.932Z,16.46
2022-10-12T00:59:20.965Z,16.57
2022-10-12T01:01:49.532Z,16.59
2022-10-12T01:04:18.094Z,16.73
2022-10-12T01:06:46.663Z,16.75
2022-10-12T01:09:17.062Z,16.77
2022-10-12T01:11:46.172Z,16.70
2022-10-12T01:14:14.917Z,16.59
2022-10-12T01:16:55.967Z,16.40
2022-10-12T01:19:58.933Z,16.29
2022-10-12T01:22:28.046Z,16.42
2022-10-12T01:25:10.940Z,16.41
2022-10-12T01:27:47.479Z,16.42
2022-10-12T01:30:21.985Z,16.36
2022-10-12T01:33:15.726Z,16.33
2022-10-12T01:35:51.283Z,16.39
2022-10-12T01:38:29.984Z,16.33
2022-10-12T01:41:04.839Z,16.26
2022-10-12T01:43:37.660Z,16.27
2022-10-12T01:46:46.878Z,16.37
2022-10-12T01:49:18.537Z,16.41
2022-10-12T01:52:23.382Z,16.04
2022-10-12T01:55:09.030Z,15.90
2022-10-12T01:57:51.434Z,15.86
2022-10-12T02:00:21.136Z,15.87
2022-10-12T02:02:59.780Z,15.90
2022-10-12T02:05:37.066Z,16.02
2022-10-12T02:08:10.691Z,16.14
2022-10-12T02:10:44.194Z,16.14
2022-10-12T02:13:16.085Z,15.97
2022-10-12T02:15:46.070Z,15.96
2022-10-12T02:18:20.781Z,16.00
2022-10-12T02:20:52.621Z,15.99
2022-10-12T02:23:25.896Z,16.00
2022-10-12T02:25:55.044Z,15.98
2022-10-12T02:28:27.175Z,15.93
2022-10-12T02:31:00.473Z,15.99
2022-10-12T02:33:36.789Z,16.01
2022-10-12T02:36:10.957Z,16.01
2022-10-12T02:38:44.320Z,15.96
2022-10-12T02:41:18.277Z,16.12
2022-10-12T02:43:53.240Z,15.95
2022-10-12T02:46:25.775Z,15.87
2022-10-12T02:48:59.161Z,15.91
2022-10-12T02:51:29.730Z,15.87
2022-10-12T02:54:01.549Z,15.91
2022-10-12T02:56:30.151Z,15.81
2022-10-12T02:58:58.705Z,15.70
2022-10-12T03:01:27.347Z,15.63
2022-10-12T03:03:57.310Z,15.77
2022-10-12T03:06:27.323Z,15.84
2022-10-12T03:08:57.558Z,15.91
2022-10-12T03:11:26.406Z,15.85
2022-10-12T03:13:55.574Z,15.70
2022-10-12T03:16:25.247Z,15.56
2022-10-12T03:18:54.188Z,15.70
2022-10-12T03:21:24.247Z,15.74
2022-10-12T03:23:52.741Z,15.80
2022-10-12T03:26:21.190Z,15.70
2022-10-12T03:28:49.674Z,15.51
2022-10-12T03:31:18.720Z,15.67
2022-10-12T03:33:47.573Z,15.57
2022-10-12T03:36:16.023Z,15.55
2022-10-12T03:38:46.095Z,15.39
2022-10-12T03:41:14.534Z,15.31
2022-10-12T03:43:43.015Z,15.27
2022-10-12T03:46:12.327Z,15.26
2022-10-12T03:48:40.741Z,15.22
2022-10-12T03:51:09.185Z,15.26
2022-10-12T03:53:40.722Z,15.45
2022-10-12T03:56:14.323Z,15.61
2022-10-12T03:58:42.788Z,15.58
2022-10-12T04:01:11.265Z,15.58
2022-10-12T04:03:39.784Z,15.63
2022-10-12T04:06:08.995Z,15.71
2022-10-12T04:08:39.908Z,15.77
2022-10-12T04:11:08.838Z,15.86
2022-10-12T04:13:39.142Z,15.92
2022-10-12T04:16:10.926Z,15.91
2022-10-12T04:18:39.365Z,15.85
2022-10-12T04:21:12.077Z,15.89
2022-10-12T04:23:40.638Z,15.80
2022-10-12T04:26:09.133Z,15.77
2022-10-12T04:28:39.049Z,15.53
2022-10-12T04:31:07.571Z,15.57
2022-10-12T04:33:35.974Z,15.49
2022-10-12T04:36:04.522Z,15.60
2022-10-12T04:38:34.091Z,15.66
2022-10-12T04:41:02.493Z,15.74
2022-10-12T04:43:30.950Z,15.77
2022-10-12T04:46:01.560Z,15.77
2022-10-12T04:48:29.992Z,15.80
2022-10-12T04:50:58.633Z,15.61
2022-10-12T04:53:27.052Z,15.45
2022-10-12T04:55:55.495Z,15.30
2022-10-12T04:58:23.973Z,15.32
2022-10-12T05:03:56.769Z,15.46
2022-10-12T05:06:25.292Z,15.41
2022-10-12T05:08:53.735Z,15.36
2022-10-12T05:11:22.318Z,15.35
2022-10-12T05:13:50.780Z,15.34
2022-10-12T05:16:19.467Z,15.22
2022-10-12T05:18:47.974Z,15.07
2022-10-12T05:21:17.875Z,14.91
2022-10-12T05:23:46.301Z,14.86
2022-10-12T05:26:14.782Z,15.00
2022-10-12T05:28:43.265Z,15.00
2022-10-12T05:31:11.838Z,15.06
2022-10-12T05:33:40.337Z,15.09
2022-10-12T05:36:09.874Z,15.01
2022-10-12T05:38:39.797Z,15.12
2022-10-12T05:41:08.326Z,15.08
2022-10-12T05:43:36.741Z,15.13
2022-10-12T05:46:05.209Z,15.09
2022-10-12T05:48:34.018Z,15.14
2022-10-12T05:51:02.435Z,15.18
2022-10-12T05:53:30.936Z,15.02
2022-10-12T05:56:02.359Z,14.88
2022-10-12T05:58:32.075Z,15.00
2022-10-12T06:01:07.182Z,15.02
2022-10-12T06:03:35.881Z,14.99
2022-10-12T06:06:05.060Z,14.94
2022-10-12T06:08:33.584Z,15.03
2022-10-12T06:11:03.863Z,15.07
2022-10-12T06:13:32.659Z,15.08
2022-10-12T06:16:01.140Z,14.94
2022-10-12T06:18:30.168Z,14.85
2022-10-12T06:23:47.474Z,14.62
2022-10-12T06:26:17.636Z,14.49
2022-10-12T06:28:46.144Z,14.35
2022-10-12T06:31:15.529Z,14.32
2022-10-12T06:33:43.958Z,14.33
2022-10-12T06:36:12.423Z,14.43
2022-10-12T06:38:40.868Z,14.48
2022-10-12T06:41:09.349Z,14.62
2022-10-12T06:43:39.159Z,14.69
2022-10-12T06:46:07.813Z,14.80
2022-10-12T06:48:36.261Z,14.88
2022-10-12T06:51:05.087Z,14.93
2022-10-12T06:53:35.153Z,14.96
2022-10-12T06:56:07.477Z,15.03
2022-10-12T06:58:35.982Z,15.04
2022-10-12T07:01:07.084Z,15.18
2022-10-12T07:03:35.909Z,15.28
2022-10-12T07:06:09.463Z,15.36
2022-10-12T07:08:38.189Z,15.36
2022-10-12T07:11:07.853Z,15.12
2022-10-12T07:13:36.585Z,15.04
2022-10-12T07:16:06.867Z,15.10
2022-10-12T07:18:35.892Z,15.22
2022-10-12T07:21:04.385Z,15.37
2022-10-12T07:23:33.423Z,15.42
2022-10-12T07:26:02.419Z,15.42
2022-10-12T07:28:31.097Z,15.57
2022-10-12T07:31:04.073Z,15.61
2022-10-12T07:33:35.394Z,15.58
2022-10-12T07:36:21.952Z,15.83
2022-10-12T07:38:50.973Z,15.91
2022-10-12T07:41:20.093Z,15.85
2022-10-12T07:43:48.566Z,15.88
2022-10-12T07:46:17.038Z,16.04
2022-10-12T07:48:50.279Z,16.20
2022-10-12T07:51:19.735Z,16.26
2022-10-12T07:53:48.245Z,16.32
2022-10-12T07:56:16.859Z,16.49
2022-10-12T07:58:49.949Z,16.93
2022-10-12T08:01:19.359Z,17.24
2022-10-12T08:03:49.795Z,17.41
2022-10-12T08:06:20.190Z,17.56
2022-10-12T08:08:49.269Z,17.82
2022-10-12T08:11:18.784Z,17.89
2022-10-12T08:13:48.219Z,17.94
2022-10-12T08:16:18.574Z,18.53
2022-10-12T08:18:48.693Z,19.97
2022-10-12T08:21:18.329Z,22.75
2022-10-12T08:23:47.270Z,25.99
2022-10-12T08:26:16.967Z,27.96
2022-10-12T08:28:45.549Z,29.77
2022-10-12T08:31:16.513Z,30.80
2022-10-12T08:33:45.293Z,32.48
2022-10-12T08:36:15.263Z,32.64
2022-10-12T08:38:45.598Z,32.28
2022-10-12T08:41:32.911Z,34.22
2022-10-12T08:44:17.013Z,34.88
2022-10-12T08:46:46.309Z,34.94
2022-10-12T08:49:18.082Z,35.56
2022-10-12T08:51:51.163Z,36.40
2022-10-12T08:54:22.161Z,36.89
2022-10-12T08:57:17.398Z,37.15
2022-10-12T08:59:46.268Z,37.73
2022-10-12T09:02:34.912Z,38.89
2022-10-12T09:05:08.229Z,39.10
2022-10-12T09:07:41.861Z,38.96
2022-10-12T09:10:27.256Z,39.36
2022-10-12T09:13:07.684Z,39.44
2022-10-12T09:15:40.395Z,38.72
2022-10-12T09:18:21.785Z,38.39
2022-10-12T09:20:52.245Z,37.81
2022-10-12T09:23:27.200Z,37.82
2022-10-12T09:25:58.390Z,39.19
2022-10-12T09:28:32.575Z,39.59
2022-10-12T09:31:13.722Z,39.96
2022-10-12T09:33:46.286Z,40.30
2022-10-12T09:36:21.250Z,41.37
2022-10-12T09:38:51.935Z,41.26
2022-10-12T09:41:23.203Z,41.43
2022-10-12T09:43:53.550Z,43.03
2022-10-12T09:46:29.895Z,42.52
2022-10-12T09:48:59.655Z,43.38
2022-10-12T09:51:30.102Z,41.26
2022-10-12T09:54:03.705Z,42.53
2022-10-12T09:56:40.117Z,43.52
2022-10-12T09:59:22.178Z,44.05
2022-10-12T10:01:59.781Z,43.64
2022-10-12T10:04:30.488Z,44.94
2022-10-12T10:07:20.341Z,44.61
2022-10-12T10:10:05.064Z,42.96
2022-10-12T10:12:33.624Z,42.83
2022-10-12T10:15:02.809Z,42.44
2022-10-12T10:17:33.969Z,42.19
2022-10-12T10:20:06.781Z,43.96
2022-10-12T10:22:35.805Z,43.66
2022-10-12T10:25:06.649Z,43.29
2022-10-12T10:27:38.240Z,42.69
2022-10-12T10:30:40.732Z,43.39
2022-10-12T10:33:17.073Z,43.05
2022-10-12T10:36:01.321Z,43.06
2022-10-12T10:38:32.443Z,43.70
2022-10-12T10:41:07.010Z,43.35
2022-10-12T10:43:36.466Z,43.75
2022-10-12T10:46:06.079Z,43.60
2022-10-12T10:48:51.146Z,42.94
2022-10-12T10:51:19.629Z,43.75
2022-10-12T10:53:49.956Z,44.25
2022-10-12T10:56:24.924Z,43.47
2022-10-12T10:58:55.873Z,43.34
2022-10-12T11:01:30.868Z,43.32
2022-10-12T11:04:03.095Z,44.07
2022-10-12T11:06:39.985Z,44.37
2022-10-12T11:09:15.302Z,43.68
2022-10-12T11:11:49.230Z,44.40
2022-10-12T11:14:19.446Z,44.08
2022-10-12T11:16:53.868Z,44.21
2022-10-12T11:19:32.843Z,41.94
2022-10-12T11:22:04.790Z,43.02
2022-10-12T11:24:41.309Z,43.42
2022-10-12T11:27:17.043Z,42.96
2022-10-12T11:29:54.143Z,44.10
2022-10-12T11:32:39.081Z,44.36
2022-10-12T11:35:15.641Z,44.87
2022-10-12T11:37:49.411Z,44.35
2022-10-12T11:40:27.052Z,44.88
2022-10-12T11:43:10.186Z,43.98
2022-10-12T11:45:47.201Z,44.11
2022-10-12T11:48:18.487Z,43.45
2022-10-12T11:50:49.741Z,40.48
2022-10-12T11:53:25.235Z,42.09
2022-10-12T11:56:05.842Z,42.75
2022-10-12T11:58:59.909Z,42.61
2022-10-12T12:01:43.872Z,42.85
2022-10-12T12:04:40.708Z,42.21
2022-10-12T12:07:29.378Z,42.15
2022-10-12T12:09:57.867Z,41.94
2022-10-12T12:12:28.359Z,42.00
2022-10-12T12:15:21.030Z,40.16
2022-10-12T12:18:14.349Z,40.19
2022-10-12T12:21:04.455Z,39.17
2022-10-12T12:23:39.490Z,37.80
2022-10-12T12:26:18.444Z,34.71
2022-10-12T12:28:49.175Z,35.11
2022-10-12T12:31:28.656Z,35.07
2022-10-12T12:34:05.329Z,33.67
2022-10-12T12:36:36.967Z,33.66
2022-10-12T12:39:09.537Z,33.39
2022-10-12T12:41:57.687Z,32.69
2022-10-12T12:44:41.691Z,31.34
2022-10-12T12:47:45.675Z,30.40
2022-10-12T12:50:36.762Z,30.51
2022-10-12T12:53:09.642Z,30.93
2022-10-12T12:56:09.843Z,30.13
2022-10-12T12:58:55.873Z,30.55
2022-10-12T13:01:40.104Z,30.37
2022-10-12T13:04:43.534Z,30.81
2022-10-12T13:07:55.071Z,30.85
2022-10-12T13:10:31.574Z,30.95
2022-10-12T13:13:18.278Z,30.94
2022-10-12T13:16:01.266Z,30.98
2022-10-12T13:18:57.340Z,30.87
2022-10-12T13:21:30.463Z,30.91
2022-10-12T13:24:06.433Z,30.79
2022-10-12T13:26:37.201Z,30.84
2022-10-12T13:29:15.681Z,30.67
2022-10-12T13:31:48.062Z,30.76
2022-10-12T13:34:21.098Z,30.79
2022-10-12T13:36:58.213Z,30.46
2022-10-12T13:39:27.964Z,30.09
2022-10-12T13:41:59.339Z,29.27
2022-10-12T13:44:30.402Z,29.36
2022-10-12T13:47:01.831Z,29.80
2022-10-12T13:49:35.283Z,30.03
2022-10-12T13:52:20.178Z,30.08
2022-10-12T13:54:49.949Z,29.95
2022-10-12T13:57:22.728Z,29.66
2022-10-12T13:59:56.380Z,29.88
2022-10-12T14:02:26.773Z,29.44
2022-10-12T14:04:56.356Z,29.17
2022-10-12T14:07:30.611Z,28.94
2022-10-12T14:10:03.177Z,29.22
2022-10-12T14:12:32.988Z,29.45
2022-10-12T14:15:02.369Z,29.70
2022-10-12T14:17:31.487Z,29.57
2022-10-12T14:20:17.129Z,29.63
2022-10-12T14:22:50.343Z,29.76
2022-10-12T14:25:22.107Z,29.56
2022-10-12T14:27:56.206Z,29.54
2022-10-12T14:30:27.177Z,29.54
2022-10-12T14:32:59.712Z,29.67
2022-10-12T14:35:30.540Z,29.70
2022-10-12T14:38:00.538Z,29.13
2022-10-12T14:40:35.493Z,29.55
2022-10-12T14:43:08.119Z,29.56
2022-10-12T14:45:37.097Z,29.52
2022-10-12T14:48:07.235Z,29.27
2022-10-12T14:50:35.690Z,29.21
2022-10-12T14:53:12.466Z,29.16
2022-10-12T14:55:41.854Z,29.10
2022-10-12T14:58:15.820Z,29.14
2022-10-12T15:00:45.149Z,29.02
2022-10-12T15:03:13.660Z,29.09
2022-10-12T15:05:42.127Z,29.07
2022-10-12T15:08:11.986Z,28.96
2022-10-12T15:10:40.431Z,28.86
2022-10-12T15:13:11.625Z,28.72
2022-10-12T15:15:43.486Z,28.59
2022-10-12T15:18:12.025Z,28.51
2022-10-12T15:20:43.258Z,28.31
2022-10-12T15:23:16.782Z,28.17
2022-10-12T15:25:50.609Z,28.14
2022-10-12T15:28:19.718Z,28.08
2022-10-12T15:31:15.298Z,28.11
2022-10-12T15:33:36.713Z,28.07
2022-10-12T15:36:05.495Z,28.00
2022-10-12T15:38:35.764Z,27.74
2022-10-12T15:41:04.896Z,27.53
2022-10-12T15:43:35.682Z,27.57
2022-10-12T15:46:06.928Z,27.47
2022-10-12T15:48:35.559Z,27.30
2022-10-12T15:51:10.575Z,27.23
2022-10-12T15:53:40.430Z,27.07
2022-10-12T15:56:13.148Z,26.96
2022-10-12T15:58:41.607Z,26.80
2022-10-12T16:01:13.180Z,26.73
2022-10-12T16:03:41.959Z,26.41
2022-10-12T16:06:10.773Z,26.44
2022-10-12T16:08:40.848Z,26.63
2022-10-12T16:11:12.629Z,26.53
2022-10-12T16:13:47.927Z,26.65
2022-10-12T16:16:18.901Z,26.62
2022-10-12T16:18:47.646Z,26.51
2022-10-12T16:21:16.142Z,26.39
2022-10-12T16:23:46.086Z,26.20
2022-10-12T16:26:16.664Z,26.25
2022-10-12T16:28:45.529Z,26.40
2022-10-12T16:31:17.925Z,26.25
2022-10-12T16:33:46.743Z,26.19
2022-10-12T16:36:17.355Z,26.13
2022-10-12T16:38:47.157Z,26.11
2022-10-12T16:41:17.797Z,26.02
2022-10-12T16:43:46.191Z,25.97
2022-10-12T16:46:14.620Z,25.81
2022-10-12T16:48:44.159Z,25.69
2022-10-12T16:51:14.354Z,25.71
2022-10-12T16:53:42.849Z,25.55
2022-10-12T16:56:12.730Z,25.55
2022-10-12T16:58:41.264Z,25.32
2022-10-12T17:01:11.404Z,25.22
2022-10-12T17:03:39.959Z,25.15
2022-10-12T17:06:09.031Z,25.09
2022-10-12T17:08:39.201Z,25.02
2022-10-12T17:11:08.983Z,24.81
2022-10-12T17:13:40.128Z,24.67
2022-10-12T17:16:42.145Z,24.63
2022-10-12T17:19:10.785Z,24.46
2022-10-12T17:21:42.229Z,24.27
2022-10-12T17:24:11.568Z,24.31
2022-10-12T17:26:41.207Z,24.23
2022-10-12T17:29:13.415Z,24.22
2022-10-12T17:31:42.360Z,24.02
2022-10-12T17:34:17.764Z,24.03
2022-10-12T17:36:46.521Z,23.96
2022-10-12T17:39:15.514Z,23.85
2022-10-12T17:41:44.263Z,23.70
2022-10-12T17:44:14.605Z,23.51
2022-10-12T17:46:44.830Z,23.50
2022-10-12T17:49:14.553Z,23.44
2022-10-12T17:51:43.368Z,23.29
2022-10-12T17:54:11.894Z,23.14
2022-10-12T17:56:40.341Z,23.05
2022-10-12T17:59:08.842Z,22.94
2022-10-12T18:01:39.138Z,22.91
2022-10-12T18:04:07.814Z,22.77
2022-10-12T18:06:36.450Z,22.71
2022-10-12T18:09:06.828Z,22.65
2022-10-12T18:11:36.600Z,22.56
2022-10-12T18:14:05.106Z,22.54
2022-10-12T18:16:34.843Z,22.52
2022-10-12T18:19:06.394Z,22.46
2022-10-12T18:21:35.517Z,22.27
2022-10-12T18:24:06.809Z,22.02
2022-10-12T18:26:35.559Z,21.82
2022-10-12T18:29:05.259Z,21.69
2022-10-12T18:31:33.909Z,21.60
2022-10-12T18:34:05.301Z,21.64
2022-10-12T18:36:33.776Z,21.56
2022-10-12T18:39:02.961Z,21.50
2022-10-12T18:41:31.571Z,21.46
2022-10-12T18:44:02.543Z,21.35
2022-10-12T18:46:33.579Z,21.25
2022-10-12T18:49:05.506Z,21.28
2022-10-12T18:51:36.011Z,21.23
2022-10-12T18:54:05.521Z,21.24
2022-10-12T18:56:36.369Z,21.11
2022-10-12T18:59:05.414Z,21.04
2022-10-12T19:01:35.054Z,21.00
2022-10-12T19:04:05.824Z,20.90
2022-10-12T19:06:36.301Z,20.83
2022-10-12T19:09:05.537Z,20.73
2022-10-12T19:11:37.188Z,20.74
2022-10-12T19:14:07.850Z,20.69
2022-10-12T19:16:36.726Z,20.64
2022-10-12T19:19:14.860Z,20.57
2022-10-12T19:21:46.901Z,20.58
2022-10-12T19:24:16.855Z,20.43
2022-10-12T19:26:45.899Z,20.33
2022-10-12T19:29:16.079Z,20.30
2022-10-12T19:31:46.502Z,20.23
2022-10-12T19:34:18.250Z,20.13
2022-10-12T19:36:47.727Z,20.14
2022-10-12T19:39:17.614Z,20.07
2022-10-12T19:41:46.709Z,20.07
2022-10-12T19:44:16.114Z,19.99
2022-10-12T19:46:47.568Z,19.97
2022-10-12T19:49:19.482Z,19.83
2022-10-12T19:51:48.743Z,19.80
2022-10-12T19:54:17.203Z,19.75
2022-10-12T19:56:45.609Z,19.69
2022-10-12T19:59:14.140Z,19.61
2022-10-12T20:01:47.859Z,19.59
2022-10-12T20:04:18.044Z,19.51
2022-10-12T20:06:46.489Z,19.39
2022-10-12T20:09:14.990Z,19.36
2022-10-12T20:11:43.432Z,19.31
2022-10-12T20:14:12.284Z,19.32
2022-10-12T20:16:41.398Z,19.28
2022-10-12T20:19:09.911Z,19.21
2022-10-12T20:21:40.207Z,19.11
2022-10-12T20:24:10.153Z,19.19
2022-10-12T20:26:38.854Z,19.19
2022-10-12T20:29:07.330Z,19.18
2022-10-12T20:31:35.894Z,19.16
2022-10-12T20:34:04.662Z,18.77
2022-10-12T20:36:33.230Z,18.71
2022-10-12T20:39:03.119Z,18.76
2022-10-12T20:41:32.696Z,18.42
2022-10-12T20:44:02.255Z,18.44
2022-10-12T20:46:31.149Z,18.53
2022-10-12T20:49:01.552Z,18.53
2022-10-12T20:51:32.129Z,18.59
2022-10-12T20:54:04.157Z,18.61
2022-10-12T20:56:34.103Z,18.69
2022-10-12T20:59:02.932Z,18.61
2022-10-12T21:01:31.374Z,18.64
2022-10-12T21:03:59.925Z,18.63
2022-10-12T21:06:28.860Z,18.59
2022-10-12T21:08:58.682Z,18.65
2022-10-12T21:11:28.853Z,18.42
2022-10-12T21:13:57.705Z,18.25
2022-10-12T21:16:27.264Z,18.04
2022-10-12T21:18:56.849Z,17.92
2022-10-12T21:21:26.868Z,17.88
2022-10-12T21:23:56.989Z,17.91
2022-10-12T21:26:27.603Z,17.81
2022-10-12T21:28:57.526Z,17.62
2022-10-12T21:31:30.967Z,17.70
2022-10-12T21:34:01.431Z,17.76
2022-10-12T21:36:31.110Z,17.78
2022-10-12T21:38:59.639Z,17.81
2022-10-12T21:41:29.964Z,17.89
2022-10-12T21:43:59.956Z,17.96
2022-10-12T21:46:30.387Z,17.97
2022-10-12T21:49:00.117Z,17.72
2022-10-12T21:51:30.289Z,17.64
2022-10-12T21:53:59.117Z,17.66
2022-10-12T21:56:29.419Z,17.57
2022-10-12T21:59:01.283Z,17.70
2022-10-12T22:01:31.817Z,17.79
2022-10-12T22:04:02.267Z,17.88
2022-10-12T22:06:31.068Z,17.90
2022-10-12T22:09:03.874Z,17.84
2022-10-12T22:11:34.436Z,17.87
2022-10-12T22:14:06.395Z,17.93
2022-10-12T22:16:35.021Z,17.75
2022-10-12T22:19:06.367Z,17.78
2022-10-12T22:21:36.449Z,17.36
2022-10-12T22:24:05.221Z,17.33
2022-10-12T22:26:33.739Z,17.17
2022-10-12T22:29:07.542Z,17.25
2022-10-12T22:31:36.484Z,17.07
2022-10-12T22:34:05.065Z,17.04
2022-10-12T22:36:37.305Z,16.92
2022-10-12T22:39:07.150Z,16.94
2022-10-12T22:41:35.563Z,16.88
2022-10-12T22:44:05.546Z,16.79
2022-10-12T22:46:34.162Z,16.69
2022-10-12T22:49:04.308Z,16.70
2022-10-12T22:51:34.863Z,16.62
2022-10-12T22:54:04.432Z,16.61
2022-10-12T22:56:33.290Z,16.64
2022-10-12T22:59:06.845Z,16.75
2022-10-12T23:01:37.183Z,16.89
2022-10-12T23:04:06.097Z,16.97
2022-10-12T23:06:34.602Z,17.02
2022-10-12T23:09:03.861Z,16.99
2022-10-12T23:11:32.340Z,16.87
2022-10-12T23:14:00.953Z,16.78
2022-10-12T23:16:33.091Z,16.81
2022-10-12T23:19:06.950Z,16.74
2022-10-12T23:21:35.953Z,16.74
2022-10-12T23:24:06.087Z,16.74
2022-10-12T23:26:35.023Z,16.62
2022-10-12T23:29:03.463Z,16.64
2022-10-12T23:31:32.591Z,16.59
2022-10-12T23:34:05.241Z,16.53
2022-10-12T23:36:35.662Z,16.48
2022-10-12T23:39:06.237Z,16.48
2022-10-12T23:41:39.759Z,16.56
2022-10-12T23:44:08.318Z,16.48
2022-10-12T23:46:36.808Z,16.52
2022-10-12T23:49:06.710Z,16.53
2022-10-12T23:51:35.623Z,16.50
2022-10-12T23:54:04.094Z,16.46
2022-10-12T23:56:32.557Z,16.35
2022-10-12T23:59:02.525Z,16.27
